sensor_id;sensor_type;location;lat;lon;timestamp;pressure;altitude;pressure_sealevel;temperature;humidity
75617;BME280;64200;55.426;37.758;2023-08-21T00:04:21;99358.69;;;17.90;63.47
75617;BME280;64200;55.426;37.758;2023-08-21T00:09:22;99366.59;;;17.97;63.25
75617;BME280;64200;55.426;37.758;2023-08-21T00:14:22;99354.81;;;17.93;63.79
75617;BME280;64200;55.426;37.758;2023-08-21T00:19:23;99361.34;;;17.77;63.80
75617;BME280;64200;55.426;37.758;2023-08-21T00:24:23;99355.19;;;17.72;63.96
75617;BME280;64200;55.426;37.758;2023-08-21T00:29:24;99362.13;;;17.71;64.35
75617;BME280;64200;55.426;37.758;2023-08-21T00:34:24;99369.03;;;17.70;64.69
75617;BME280;64200;55.426;37.758;2023-08-21T00:39:25;99376.19;;;17.77;64.56
75617;BME280;64200;55.426;37.758;2023-08-21T00:44:25;99362.84;;;17.78;64.68
75617;BME280;64200;55.426;37.758;2023-08-21T00:49:26;99361.09;;;17.69;64.65
75617;BME280;64200;55.426;37.758;2023-08-21T00:54:27;99372.97;;;17.62;64.53
75617;BME280;64200;55.426;37.758;2023-08-21T00:59:29;99377.84;;;17.55;64.77
75617;BME280;64200;55.426;37.758;2023-08-21T01:04:29;99365.00;;;17.60;64.38
75617;BME280;64200;55.426;37.758;2023-08-21T01:09:54;99364.31;;;17.48;65.12
75617;BME280;64200;55.426;37.758;2023-08-21T01:15:00;99370.03;;;17.31;65.17
75617;BME280;64200;55.426;37.758;2023-08-21T01:20:04;99373.59;;;17.37;65.11
75617;BME280;64200;55.426;37.758;2023-08-21T01:25:07;99370.53;;;17.41;65.22
75617;BME280;64200;55.426;37.758;2023-08-21T01:30:09;99367.53;;;17.22;65.56
75617;BME280;64200;55.426;37.758;2023-08-21T01:35:10;99370.16;;;17.09;65.28
75617;BME280;64200;55.426;37.758;2023-08-21T01:40:20;99371.22;;;17.00;65.86
75617;BME280;64200;55.426;37.758;2023-08-21T01:45:22;99368.16;;;16.86;65.65
75617;BME280;64200;55.426;37.758;2023-08-21T01:50:23;99353.34;;;16.69;65.82
75617;BME280;64200;55.426;37.758;2023-08-21T01:55:23;99370.25;;;16.69;65.63
75617;BME280;64200;55.426;37.758;2023-08-21T02:00:24;99363.63;;;16.55;65.54
75617;BME280;64200;55.426;37.758;2023-08-21T02:05:24;99369.78;;;16.48;65.49
75617;BME280;64200;55.426;37.758;2023-08-21T02:10:25;99376.69;;;16.58;65.65
75617;BME280;64200;55.426;37.758;2023-08-21T02:15:26;99380.78;;;16.57;65.65
75617;BME280;64200;55.426;37.758;2023-08-21T02:20:26;99387.66;;;16.67;65.40
75617;BME280;64200;55.426;37.758;2023-08-21T02:25:27;99386.66;;;16.59;65.12
75617;BME280;64200;55.426;37.758;2023-08-21T02:30:28;99391.50;;;16.64;65.09
75617;BME280;64200;55.426;37.758;2023-08-21T02:35:28;99385.38;;;16.66;65.04
75617;BME280;64200;55.426;37.758;2023-08-21T02:40:29;99384.09;;;16.61;65.20
75617;BME280;64200;55.426;37.758;2023-08-21T02:45:30;99389.22;;;16.40;65.15
75617;BME280;64200;55.426;37.758;2023-08-21T02:50:30;99397.16;;;16.47;65.19
75617;BME280;64200;55.426;37.758;2023-08-21T02:55:31;99395.88;;;16.54;65.09
75617;BME280;64200;55.426;37.758;2023-08-21T03:00:32;99398.47;;;16.35;65.47
75617;BME280;64200;55.426;37.758;2023-08-21T03:05:32;99396.41;;;16.47;65.29
75617;BME280;64200;55.426;37.758;2023-08-21T03:10:33;99388.75;;;16.42;65.16
75617;BME280;64200;55.426;37.758;2023-08-21T03:15:35;99402.53;;;16.45;65.36
75617;BME280;64200;55.426;37.758;2023-08-21T03:20:35;99411.22;;;16.47;65.42
75617;BME280;64200;55.426;37.758;2023-08-21T03:25:36;99408.69;;;16.55;65.12
75617;BME280;64200;55.426;37.758;2023-08-21T03:30:39;99407.88;;;16.72;65.05
75617;BME280;64200;55.426;37.758;2023-08-21T03:35:39;99408.38;;;16.76;64.53
75617;BME280;64200;55.426;37.758;2023-08-21T03:40:40;99407.38;;;16.62;64.78
75617;BME280;64200;55.426;37.758;2023-08-21T03:45:41;99410.44;;;16.69;64.33
75617;BME280;64200;55.426;37.758;2023-08-21T03:50:41;99406.63;;;16.67;64.07
75617;BME280;64200;55.426;37.758;2023-08-21T03:55:42;99419.38;;;16.96;64.44
75617;BME280;64200;55.426;37.758;2023-08-21T04:00:42;99413.19;;;17.09;63.90
75617;BME280;64200;55.426;37.758;2023-08-21T04:05:43;99417.03;;;17.06;63.63
75617;BME280;64200;55.426;37.758;2023-08-21T04:10:43;99416.28;;;17.06;63.56
75617;BME280;64200;55.426;37.758;2023-08-21T04:15:45;99416.75;;;17.10;63.47
75617;BME280;64200;55.426;37.758;2023-08-21T04:20:48;99411.13;;;17.10;63.58
75617;BME280;64200;55.426;37.758;2023-08-21T04:25:48;99409.84;;;17.11;63.66
75617;BME280;64200;55.426;37.758;2023-08-21T04:30:49;99415.16;;;17.26;63.22
75617;BME280;64200;55.426;37.758;2023-08-21T04:35:49;99414.63;;;17.33;63.28
75617;BME280;64200;55.426;37.758;2023-08-21T04:40:50;99414.91;;;17.29;62.86
75617;BME280;64200;55.426;37.758;2023-08-21T04:45:52;99416.09;;;17.45;62.73
75617;BME280;64200;55.426;37.758;2023-08-21T04:50:55;99406.38;;;17.46;62.16
75617;BME280;64200;55.426;37.758;2023-08-21T04:55:58;99419.22;;;17.42;62.71
75617;BME280;64200;55.426;37.758;2023-08-21T05:00:59;99423.41;;;17.77;62.57
75617;BME280;64200;55.426;37.758;2023-08-21T05:05:59;99432.78;;;17.96;61.68
75617;BME280;64200;55.426;37.758;2023-08-21T05:11:01;99421.34;;;17.77;61.59
75617;BME280;64200;55.426;37.758;2023-08-21T05:16:01;99432.78;;;17.96;61.57
75617;BME280;64200;55.426;37.758;2023-08-21T05:21:02;99436.38;;;18.33;61.16
75617;BME280;64200;55.426;37.758;2023-08-21T05:26:04;99433.09;;;18.53;60.13
75617;BME280;64200;55.426;37.758;2023-08-21T05:31:05;99431.06;;;18.78;59.48
75617;BME280;64200;55.426;37.758;2023-08-21T05:36:05;99433.44;;;18.74;59.14
75617;BME280;64200;55.426;37.758;2023-08-21T05:41:06;99435.78;;;18.70;58.93
75617;BME280;64200;55.426;37.758;2023-08-21T05:46:06;99434.81;;;18.92;59.20
75617;BME280;64200;55.426;37.758;2023-08-21T05:51:07;99432.88;;;19.50;58.18
75617;BME280;64200;55.426;37.758;2023-08-21T05:56:08;99436.16;;;19.35;57.28
75617;BME280;64200;55.426;37.758;2023-08-21T06:01:08;99436.81;;;19.22;56.82
75617;BME280;64200;55.426;37.758;2023-08-21T06:06:09;99438.91;;;19.41;56.24
75617;BME280;64200;55.426;37.758;2023-08-21T06:11:09;99424.13;;;19.48;56.10
75617;BME280;64200;55.426;37.758;2023-08-21T06:16:10;99428.13;;;19.77;55.64
75617;BME280;64200;55.426;37.758;2023-08-21T06:21:11;99421.66;;;19.82;54.25
75617;BME280;64200;55.426;37.758;2023-08-21T06:26:11;99417.66;;;20.24;52.64
75617;BME280;64200;55.426;37.758;2023-08-21T06:31:12;99428.09;;;20.48;52.45
75617;BME280;64200;55.426;37.758;2023-08-21T06:36:12;99424.25;;;20.91;51.13
75617;BME280;64200;55.426;37.758;2023-08-21T06:41:13;99412.03;;;21.36;50.06
75617;BME280;64200;55.426;37.758;2023-08-21T06:46:13;99428.03;;;21.95;48.01
75617;BME280;64200;55.426;37.758;2023-08-21T06:51:14;99415.28;;;22.44;47.59
75617;BME280;64200;55.426;37.758;2023-08-21T06:56:15;99429.06;;;22.90;45.83
75617;BME280;64200;55.426;37.758;2023-08-21T07:01:15;99425.81;;;22.86;45.64
75617;BME280;64200;55.426;37.758;2023-08-21T07:06:16;99431.28;;;23.41;45.00
75617;BME280;64200;55.426;37.758;2023-08-21T07:11:16;99437.06;;;24.24;42.17
75617;BME280;64200;55.426;37.758;2023-08-21T07:16:17;99434.53;;;23.45;41.82
75617;BME280;64200;55.426;37.758;2023-08-21T07:21:18;99445.00;;;22.64;43.16
75617;BME280;64200;55.426;37.758;2023-08-21T07:26:18;99448.09;;;22.74;43.55
75617;BME280;64200;55.426;37.758;2023-08-21T07:31:19;99439.53;;;24.12;41.76
75617;BME280;64200;55.426;37.758;2023-08-21T07:36:19;99440.44;;;23.55;40.39
75617;BME280;64200;55.426;37.758;2023-08-21T07:41:20;99426.16;;;22.53;41.77
75617;BME280;64200;55.426;37.758;2023-08-21T07:46:21;99438.44;;;22.98;42.71
75617;BME280;64200;55.426;37.758;2023-08-21T07:51:21;99432.19;;;24.71;40.35
75617;BME280;64200;55.426;37.758;2023-08-21T07:56:22;99424.25;;;26.90;36.76
75617;BME280;64200;55.426;37.758;2023-08-21T08:01:22;99429.03;;;28.02;32.54
75617;BME280;64200;55.426;37.758;2023-08-21T08:06:23;99443.19;;;29.21;32.00
75617;BME280;64200;55.426;37.758;2023-08-21T08:11:24;99431.34;;;30.37;29.62
75617;BME280;64200;55.426;37.758;2023-08-21T08:16:25;99424.56;;;29.91;28.59
75617;BME280;64200;55.426;37.758;2023-08-21T08:21:29;99414.81;;;30.06;29.75
75617;BME280;64200;55.426;37.758;2023-08-21T08:26:29;99420.13;;;30.72;26.61
75617;BME280;64200;55.426;37.758;2023-08-21T08:31:30;99422.22;;;30.50;26.18
75617;BME280;64200;55.426;37.758;2023-08-21T08:36:31;99417.97;;;32.16;24.07
75617;BME280;64200;55.426;37.758;2023-08-21T08:41:43;99431.88;;;33.66;22.64
75617;BME280;64200;55.426;37.758;2023-08-21T08:46:47;99428.56;;;35.50;21.85
75617;BME280;64200;55.426;37.758;2023-08-21T08:51:50;99410.63;;;36.32;18.90
75617;BME280;64200;55.426;37.758;2023-08-21T08:56:51;99421.97;;;37.09;19.55
75617;BME280;64200;55.426;37.758;2023-08-21T09:01:52;99420.78;;;37.51;17.50
75617;BME280;64200;55.426;37.758;2023-08-21T09:07:06;99417.00;;;37.84;17.39
75617;BME280;64200;55.426;37.758;2023-08-21T09:12:10;99422.41;;;38.30;17.18
75617;BME280;64200;55.426;37.758;2023-08-21T09:17:12;99412.31;;;39.15;15.51
75617;BME280;64200;55.426;37.758;2023-08-21T09:22:17;99408.16;;;38.00;15.82
75617;BME280;64200;55.426;37.758;2023-08-21T09:27:21;99410.69;;;39.32;16.34
75617;BME280;64200;55.426;37.758;2023-08-21T09:32:21;99405.31;;;40.44;15.03
75617;BME280;64200;55.426;37.758;2023-08-21T09:37:28;99403.56;;;42.10;13.57
75617;BME280;64200;55.426;37.758;2023-08-21T09:42:30;99419.06;;;43.33;12.68
75617;BME280;64200;55.426;37.758;2023-08-21T09:47:31;99394.75;;;42.45;12.43
75617;BME280;64200;55.426;37.758;2023-08-21T09:52:33;99391.75;;;38.49;15.25
75617;BME280;64200;55.426;37.758;2023-08-21T09:57:35;99384.34;;;39.30;14.77
75617;BME280;64200;55.426;37.758;2023-08-21T10:02:36;99380.84;;;42.45;13.22
75617;BME280;64200;55.426;37.758;2023-08-21T10:07:37;99366.59;;;41.30;12.90
75617;BME280;64200;55.426;37.758;2023-08-21T10:12:37;99373.78;;;41.55;12.89
75617;BME280;64200;55.426;37.758;2023-08-21T10:17:38;99380.34;;;38.97;14.54
75617;BME280;64200;55.426;37.758;2023-08-21T10:22:42;99372.22;;;38.94;13.47
75617;BME280;64200;55.426;37.758;2023-08-21T10:27:43;99364.38;;;39.45;15.93
75617;BME280;64200;55.426;37.758;2023-08-21T10:32:47;99359.47;;;40.00;13.97
75617;BME280;64200;55.426;37.758;2023-08-21T10:43:42;99348.84;;;36.99;15.19
75617;BME280;64200;55.426;37.758;2023-08-21T10:48:46;99344.03;;;35.12;17.19
75617;BME280;64200;55.426;37.758;2023-08-21T10:53:46;99353.13;;;41.17;14.03
75617;BME280;64200;55.426;37.758;2023-08-21T10:58:47;99360.00;;;44.82;11.38
75617;BME280;64200;55.426;37.758;2023-08-21T11:03:51;99350.00;;;45.20;10.32
75617;BME280;64200;55.426;37.758;2023-08-21T11:08:52;99347.28;;;45.55;9.47
75617;BME280;64200;55.426;37.758;2023-08-21T11:13:53;99332.84;;;38.95;12.92
75617;BME280;64200;55.426;37.758;2023-08-21T11:18:54;99320.78;;;34.39;15.85
75617;BME280;64200;55.426;37.758;2023-08-21T11:23:55;99329.09;;;36.44;17.61
75617;BME280;64200;55.426;37.758;2023-08-21T11:28:55;99334.13;;;42.58;11.84
75617;BME280;64200;55.426;37.758;2023-08-21T11:33:56;99317.38;;;41.53;11.58
75617;BME280;64200;55.426;37.758;2023-08-21T11:39:01;99310.72;;;41.18;11.85
75617;BME280;64200;55.426;37.758;2023-08-21T11:44:03;99307.00;;;43.00;11.31
75617;BME280;64200;55.426;37.758;2023-08-21T11:49:04;99310.81;;;44.97;10.29
75617;BME280;64200;55.426;37.758;2023-08-21T11:54:06;99299.94;;;45.18;9.45
75617;BME280;64200;55.426;37.758;2023-08-21T11:59:06;99304.34;;;45.15;10.34
75617;BME280;64200;55.426;37.758;2023-08-21T12:04:16;99293.97;;;38.44;12.24
75617;BME280;64200;55.426;37.758;2023-08-21T12:09:18;99286.41;;;35.98;16.14
75617;BME280;64200;55.426;37.758;2023-08-21T12:14:21;99304.72;;;41.76;13.19
75617;BME280;64200;55.426;37.758;2023-08-21T12:19:23;99302.66;;;43.52;11.07
75617;BME280;64200;55.426;37.758;2023-08-21T12:24:24;99292.66;;;41.97;11.05
75617;BME280;64200;55.426;37.758;2023-08-21T12:29:25;99293.50;;;42.82;10.99
75617;BME280;64200;55.426;37.758;2023-08-21T12:34:26;99280.97;;;40.97;11.45
75617;BME280;64200;55.426;37.758;2023-08-21T12:39:26;99263.22;;;35.21;14.29
75617;BME280;64200;55.426;37.758;2023-08-21T12:44:27;99256.75;;;31.63;18.45
75617;BME280;64200;55.426;37.758;2023-08-21T12:49:27;99245.94;;;30.61;20.19
75617;BME280;64200;55.426;37.758;2023-08-21T12:54:28;99251.28;;;30.12;22.23
75617;BME280;64200;55.426;37.758;2023-08-21T12:59:28;99248.03;;;29.65;22.00
75617;BME280;64200;55.426;37.758;2023-08-21T13:04:29;99237.00;;;29.61;22.58
75617;BME280;64200;55.426;37.758;2023-08-21T13:09:30;99226.22;;;29.11;23.65
75617;BME280;64200;55.426;37.758;2023-08-21T13:14:30;99221.03;;;28.68;24.44
75617;BME280;64200;55.426;37.758;2023-08-21T13:19:31;99232.78;;;28.72;23.57
75617;BME280;64200;55.426;37.758;2023-08-21T13:24:32;99217.25;;;28.46;24.71
75617;BME280;64200;55.426;37.758;2023-08-21T13:29:32;99222.66;;;28.42;24.27
75617;BME280;64200;55.426;37.758;2023-08-21T13:34:33;99212.66;;;28.03;24.29
75617;BME280;64200;55.426;37.758;2023-08-21T13:39:34;99217.28;;;27.89;24.36
75617;BME280;64200;55.426;37.758;2023-08-21T13:44:34;99217.69;;;27.76;24.53
75617;BME280;64200;55.426;37.758;2023-08-21T13:49:35;99211.63;;;27.62;24.89
75617;BME280;64200;55.426;37.758;2023-08-21T13:54:36;99206.91;;;27.47;25.30
75617;BME280;64200;55.426;37.758;2023-08-21T13:59:36;99209.31;;;27.23;25.61
75617;BME280;64200;55.426;37.758;2023-08-21T14:04:37;99195.13;;;27.15;25.45
75617;BME280;64200;55.426;37.758;2023-08-21T14:09:38;99196.94;;;27.21;25.87
75617;BME280;64200;55.426;37.758;2023-08-21T14:14:39;99186.84;;;26.92;25.93
75617;BME280;64200;55.426;37.758;2023-08-21T14:19:39;99203.09;;;26.90;26.53
75617;BME280;64200;55.426;37.758;2023-08-21T14:24:40;99194.97;;;26.86;26.74
75617;BME280;64200;55.426;37.758;2023-08-21T14:29:44;99186.00;;;26.72;26.62
75617;BME280;64200;55.426;37.758;2023-08-21T14:34:44;99188.34;;;26.31;26.41
75617;BME280;64200;55.426;37.758;2023-08-21T14:39:45;99184.16;;;26.15;26.95
75617;BME280;64200;55.426;37.758;2023-08-21T14:44:46;99179.63;;;25.86;27.69
75617;BME280;64200;55.426;37.758;2023-08-21T14:49:47;99180.72;;;25.73;27.98
75617;BME280;64200;55.426;37.758;2023-08-21T14:54:50;99163.75;;;25.50;28.15
75617;BME280;64200;55.426;37.758;2023-08-21T14:59:51;99180.03;;;25.40;28.54
75617;BME280;64200;55.426;37.758;2023-08-21T15:04:51;99178.34;;;25.37;28.54
75617;BME280;64200;55.426;37.758;2023-08-21T15:09:52;99172.63;;;25.37;28.81
75617;BME280;64200;55.426;37.758;2023-08-21T15:14:53;99176.25;;;25.30;28.48
75617;BME280;64200;55.426;37.758;2023-08-21T15:19:53;99176.16;;;25.20;28.74
75617;BME280;64200;55.426;37.758;2023-08-21T15:24:54;99169.59;;;25.02;28.81
75617;BME280;64200;55.426;37.758;2023-08-21T15:29:54;99173.34;;;24.79;29.35
75617;BME280;64200;55.426;37.758;2023-08-21T15:34:55;99177.59;;;24.63;29.53
75617;BME280;64200;55.426;37.758;2023-08-21T15:39:55;99180.84;;;24.51;29.91
75617;BME280;64200;55.426;37.758;2023-08-21T15:44:56;99172.72;;;24.40;29.93
75617;BME280;64200;55.426;37.758;2023-08-21T15:49:56;99169.72;;;24.30;29.96
75617;BME280;64200;55.426;37.758;2023-08-21T15:54:57;99184.34;;;24.19;30.20
75617;BME280;64200;55.426;37.758;2023-08-21T15:59:58;99180.41;;;24.07;30.66
75617;BME280;64200;55.426;37.758;2023-08-21T16:04:58;99182.31;;;23.96;32.09
75617;BME280;64200;55.426;37.758;2023-08-21T16:09:59;99183.88;;;23.90;32.76
75617;BME280;64200;55.426;37.758;2023-08-21T16:14:59;99182.34;;;23.73;33.54
75617;BME280;64200;55.426;37.758;2023-08-21T16:20:00;99175.91;;;23.49;34.07
75617;BME280;64200;55.426;37.758;2023-08-21T16:25:05;99180.78;;;23.18;35.35
75617;BME280;64200;55.426;37.758;2023-08-21T16:30:07;99179.03;;;23.07;35.37
75617;BME280;64200;55.426;37.758;2023-08-21T16:35:07;99174.06;;;22.92;36.21
75617;BME280;64200;55.426;37.758;2023-08-21T16:40:08;99172.13;;;22.87;36.49
75617;BME280;64200;55.426;37.758;2023-08-21T16:45:09;99180.88;;;22.82;36.92
75617;BME280;64200;55.426;37.758;2023-08-21T16:50:14;99169.25;;;22.72;37.53
75617;BME280;64200;55.426;37.758;2023-08-21T16:55:15;99176.06;;;22.61;38.02
75617;BME280;64200;55.426;37.758;2023-08-21T17:00:15;99184.16;;;22.49;39.07
75617;BME280;64200;55.426;37.758;2023-08-21T17:05:16;99183.91;;;22.39;39.77
75617;BME280;64200;55.426;37.758;2023-08-21T17:10:17;99181.38;;;22.28;40.27
75617;BME280;64200;55.426;37.758;2023-08-21T17:15:18;99173.50;;;22.13;40.93
75617;BME280;64200;55.426;37.758;2023-08-21T17:20:19;99182.00;;;22.05;40.98
75617;BME280;64200;55.426;37.758;2023-08-21T17:25:20;99176.41;;;21.92;41.51
75617;BME280;64200;55.426;37.758;2023-08-21T17:30:21;99180.97;;;21.66;40.22
75617;BME280;64200;55.426;37.758;2023-08-21T17:35:21;99178.13;;;21.66;40.75
75617;BME280;64200;55.426;37.758;2023-08-21T17:40:22;99166.72;;;21.58;40.34
75617;BME280;64200;55.426;37.758;2023-08-21T17:45:22;99170.94;;;21.44;40.20
75617;BME280;64200;55.426;37.758;2023-08-21T17:50:23;99171.06;;;21.38;40.33
75617;BME280;64200;55.426;37.758;2023-08-21T17:55:24;99171.19;;;21.54;42.01
75617;BME280;64200;55.426;37.758;2023-08-21T18:00:24;99168.59;;;21.56;42.64
75617;BME280;64200;55.426;37.758;2023-08-21T18:05:28;99174.09;;;21.40;43.30
75617;BME280;64200;55.426;37.758;2023-08-21T18:10:32;99165.44;;;21.25;44.11
75617;BME280;64200;55.426;37.758;2023-08-21T18:15:32;99166.06;;;21.10;44.65
75617;BME280;64200;55.426;37.758;2023-08-21T18:20:47;99169.72;;;20.97;45.23
75617;BME280;64200;55.426;37.758;2023-08-21T18:25:52;99161.88;;;20.90;46.11
75617;BME280;64200;55.426;37.758;2023-08-21T18:30:58;99164.44;;;20.80;46.20
75617;BME280;64200;55.426;37.758;2023-08-21T18:35:59;99156.19;;;20.69;47.69
75617;BME280;64200;55.426;37.758;2023-08-21T18:41:01;99158.34;;;20.63;47.77
75617;BME280;64200;55.426;37.758;2023-08-21T18:46:01;99141.81;;;20.53;48.14
75617;BME280;64200;55.426;37.758;2023-08-21T18:51:02;99149.88;;;20.49;48.56
75617;BME280;64200;55.426;37.758;2023-08-21T18:56:03;99139.00;;;20.40;48.20
75617;BME280;64200;55.426;37.758;2023-08-21T19:01:05;99144.69;;;20.40;47.90
75617;BME280;64200;55.426;37.758;2023-08-21T19:06:06;99149.38;;;20.38;47.76
75617;BME280;64200;55.426;37.758;2023-08-21T19:11:07;99141.97;;;20.34;48.34
75617;BME280;64200;55.426;37.758;2023-08-21T19:16:08;99134.69;;;20.26;48.54
75617;BME280;64200;55.426;37.758;2023-08-21T19:21:08;99138.91;;;20.19;48.65
75617;BME280;64200;55.426;37.758;2023-08-21T19:26:09;99141.88;;;20.13;48.10
75617;BME280;64200;55.426;37.758;2023-08-21T19:31:10;99140.47;;;20.07;47.76
75617;BME280;64200;55.426;37.758;2023-08-21T19:36:13;99140.81;;;20.03;47.41
75617;BME280;64200;55.426;37.758;2023-08-21T19:41:14;99132.06;;;19.88;47.55
75617;BME280;64200;55.426;37.758;2023-08-21T19:46:14;99138.19;;;19.78;48.04
75617;BME280;64200;55.426;37.758;2023-08-21T19:51:15;99143.09;;;19.78;48.45
75617;BME280;64200;55.426;37.758;2023-08-21T19:56:16;99145.22;;;19.72;48.43
75617;BME280;64200;55.426;37.758;2023-08-21T20:01:16;99135.75;;;19.56;48.87
75617;BME280;64200;55.426;37.758;2023-08-21T20:06:17;99132.09;;;19.42;48.78
75617;BME280;64200;55.426;37.758;2023-08-21T20:11:17;99134.47;;;19.24;49.44
75617;BME280;64200;55.426;37.758;2023-08-21T20:16:18;99148.84;;;19.26;49.54
75617;BME280;64200;55.426;37.758;2023-08-21T20:21:18;99132.28;;;19.17;49.53
75617;BME280;64200;55.426;37.758;2023-08-21T20:26:21;99131.00;;;18.99;49.42
75617;BME280;64200;55.426;37.758;2023-08-21T20:31:24;99131.66;;;18.73;49.69
75617;BME280;64200;55.426;37.758;2023-08-21T20:36:26;99138.66;;;18.85;49.94
75617;BME280;64200;55.426;37.758;2023-08-21T20:41:26;99126.44;;;18.77;50.46
75617;BME280;64200;55.426;37.758;2023-08-21T20:46:27;99137.06;;;18.71;49.67
75617;BME280;64200;55.426;37.758;2023-08-21T20:51:28;99123.41;;;18.56;49.85
75617;BME280;64200;55.426;37.758;2023-08-21T20:56:28;99134.47;;;18.73;49.54
75617;BME280;64200;55.426;37.758;2023-08-21T21:01:29;99133.81;;;18.80;49.22
75617;BME280;64200;55.426;37.758;2023-08-21T21:06:29;99129.97;;;18.83;49.83
75617;BME280;64200;55.426;37.758;2023-08-21T21:11:30;99132.69;;;18.89;49.47
75617;BME280;64200;55.426;37.758;2023-08-21T21:16:30;99126.59;;;18.85;49.41
75617;BME280;64200;55.426;37.758;2023-08-21T21:21:31;99115.53;;;18.68;49.66
75617;BME280;64200;55.426;37.758;2023-08-21T21:26:32;99118.72;;;18.77;49.64
75617;BME280;64200;55.426;37.758;2023-08-21T21:31:34;99120.44;;;18.86;49.54
75617;BME280;64200;55.426;37.758;2023-08-21T21:36:35;99116.19;;;18.93;49.37
75617;BME280;64200;55.426;37.758;2023-08-21T21:41:40;99112.16;;;18.88;49.37
75617;BME280;64200;55.426;37.758;2023-08-21T21:46:41;99099.09;;;18.85;49.44
75617;BME280;64200;55.426;37.758;2023-08-21T21:51:41;99091.31;;;18.91;49.33
75617;BME280;64200;55.426;37.758;2023-08-21T21:56:42;99085.28;;;18.82;49.38
75617;BME280;64200;55.426;37.758;2023-08-21T22:01:42;99080.69;;;18.78;49.34
75617;BME280;64200;55.426;37.758;2023-08-21T22:06:43;99080.16;;;18.80;49.49
75617;BME280;64200;55.426;37.758;2023-08-21T22:11:45;99080.94;;;18.81;49.22
75617;BME280;64200;55.426;37.758;2023-08-21T22:16:45;99071.44;;;18.78;49.52
75617;BME280;64200;55.426;37.758;2023-08-21T22:21:46;99076.88;;;18.76;49.74
75617;BME280;64200;55.426;37.758;2023-08-21T22:26:47;99073.78;;;18.60;49.55
75617;BME280;64200;55.426;37.758;2023-08-21T22:31:47;99064.84;;;18.56;50.32
75617;BME280;64200;55.426;37.758;2023-08-21T22:36:48;99067.22;;;18.52;50.39
75617;BME280;64200;55.426;37.758;2023-08-21T22:41:48;99057.16;;;18.38;50.17
75617;BME280;64200;55.426;37.758;2023-08-21T22:46:49;99056.47;;;18.32;50.54
75617;BME280;64200;55.426;37.758;2023-08-21T22:51:50;99046.56;;;18.25;50.39
75617;BME280;64200;55.426;37.758;2023-08-21T22:56:51;99044.72;;;18.08;50.63
75617;BME280;64200;55.426;37.758;2023-08-21T23:01:52;99040.53;;;18.15;51.11
75617;BME280;64200;55.426;37.758;2023-08-21T23:06:53;99031.63;;;18.11;51.13
75617;BME280;64200;55.426;37.758;2023-08-21T23:11:53;99032.69;;;18.08;51.48
75617;BME280;64200;55.426;37.758;2023-08-21T23:16:54;99024.50;;;18.04;51.65
75617;BME280;64200;55.426;37.758;2023-08-21T23:21:54;99027.97;;;17.97;51.78
75617;BME280;64200;55.426;37.758;2023-08-21T23:26:55;99022.66;;;17.88;51.57
75617;BME280;64200;55.426;37.758;2023-08-21T23:31:56;99026.06;;;17.62;51.96
75617;BME280;64200;55.426;37.758;2023-08-21T23:36:56;99027.53;;;17.19;53.39
75617;BME280;64200;55.426;37.758;2023-08-21T23:41:57;99026.47;;;16.97;53.65
75617;BME280;64200;55.426;37.758;2023-08-21T23:46:58;99030.53;;;16.66;55.65
75617;BME280;64200;55.426;37.758;2023-08-21T23:51:59;99030.81;;;16.62;55.75
75617;BME280;64200;55.426;37.758;2023-08-21T23:56:59;99027.72;;;16.66;56.07
